sensor_id;sensor_type;location;lat;lon;timestamp;pressure;altitude;pressure_sealevel;temperature;humidity
66664;BME280;59683;51.428;-1.994;2023-05-15T00:02:06;101018.84;;;10.81;100.00
66664;BME280;59683;51.428;-1.994;2023-05-15T00:04:31;101012.59;;;10.82;100.00
66664;BME280;59683;51.428;-1.994;2023-05-15T00:06:57;101022.25;;;10.83;100.00
66664;BME280;59683;51.428;-1.994;2023-05-15T00:09:22;101017.03;;;10.82;100.00
66664;BME280;59683;51.428;-1.994;2023-05-15T00:11:48;101019.47;;;10.85;100.00
66664;BME280;59683;51.428;-1.994;2023-05-15T00:14:13;101015.13;;;10.84;100.00
66664;BME280;59683;51.428;-1.994;2023-05-15T00:16:39;101015.50;;;10.90;100.00
66664;BME280;59683;51.428;-1.994;2023-05-15T00:19:04;101019.94;;;10.90;100.00
66664;BME280;59683;51.428;-1.994;2023-05-15T00:21:30;101011.28;;;10.88;100.00
66664;BME280;59683;51.428;-1.994;2023-05-15T00:23:55;101017.44;;;10.88;100.00
66664;BME280;59683;51.428;-1.994;2023-05-15T00:26:23;101020.78;;;10.90;100.00
66664;BME280;59683;51.428;-1.994;2023-05-15T00:28:48;101018.16;;;10.90;100.00
66664;BME280;59683;51.428;-1.994;2023-05-15T00:31:14;101031.28;;;10.92;100.00
66664;BME280;59683;51.428;-1.994;2023-05-15T00:33:40;101029.84;;;10.88;100.00
66664;BME280;59683;51.428;-1.994;2023-05-15T01:03:36;101042.59;;;9.84;100.00
66664;BME280;59683;51.428;-1.994;2023-05-15T01:11:59;101056.84;;;9.81;100.00
66664;BME280;59683;51.428;-1.994;2023-05-15T01:14:27;101057.19;;;9.77;100.00
66664;BME280;59683;51.428;-1.994;2023-05-15T01:16:53;101058.78;;;9.79;100.00
66664;BME280;59683;51.428;-1.994;2023-05-15T06:10:09;101214.66;;;9.27;100.00
66664;BME280;59683;51.428;-1.994;2023-05-15T06:12:34;101212.41;;;9.47;100.00
66664;BME280;59683;51.428;-1.994;2023-05-15T06:15:00;101208.81;;;9.88;100.00
66664;BME280;59683;51.428;-1.994;2023-05-15T06:17:25;101215.03;;;10.40;100.00
66664;BME280;59683;51.428;-1.994;2023-05-15T06:19:50;101211.75;;;10.62;100.00
66664;BME280;59683;51.428;-1.994;2023-05-15T06:22:16;101210.16;;;10.72;100.00
66664;BME280;59683;51.428;-1.994;2023-05-15T06:24:41;101226.78;;;10.61;100.00
66664;BME280;59683;51.428;-1.994;2023-05-15T06:27:07;101221.50;;;10.61;100.00
66664;BME280;59683;51.428;-1.994;2023-05-15T06:29:32;101217.28;;;10.46;100.00
66664;BME280;59683;51.428;-1.994;2023-05-15T06:31:57;101215.88;;;10.40;100.00
66664;BME280;59683;51.428;-1.994;2023-05-15T06:34:23;101220.66;;;10.35;100.00
66664;BME280;59683;51.428;-1.994;2023-05-15T06:36:48;101217.25;;;10.20;100.00
66664;BME280;59683;51.428;-1.994;2023-05-15T06:39:13;101221.81;;;10.31;100.00
66664;BME280;59683;51.428;-1.994;2023-05-15T06:41:39;101221.06;;;10.67;100.00
66664;BME280;59683;51.428;-1.994;2023-05-15T06:44:04;101227.81;;;10.84;100.00
66664;BME280;59683;51.428;-1.994;2023-05-15T06:46:30;101236.34;;;11.37;100.00
66664;BME280;59683;51.428;-1.994;2023-05-15T06:48:55;101233.59;;;11.63;100.00
66664;BME280;59683;51.428;-1.994;2023-05-15T06:51:20;101230.25;;;11.72;100.00
66664;BME280;59683;51.428;-1.994;2023-05-15T06:53:46;101224.34;;;11.93;100.00
66664;BME280;59683;51.428;-1.994;2023-05-15T06:56:11;101226.56;;;12.21;100.00
66664;BME280;59683;51.428;-1.994;2023-05-15T06:58:37;101226.84;;;12.40;100.00
66664;BME280;59683;51.428;-1.994;2023-05-15T07:01:02;101227.09;;;12.49;100.00
66664;BME280;59683;51.428;-1.994;2023-05-15T07:03:28;101231.31;;;12.96;100.00
66664;BME280;59683;51.428;-1.994;2023-05-15T07:05:54;101230.44;;;13.18;100.00
66664;BME280;59683;51.428;-1.994;2023-05-15T07:08:19;101235.31;;;13.24;100.00
66664;BME280;59683;51.428;-1.994;2023-05-15T07:10:45;101235.16;;;13.03;100.00
66664;BME280;59683;51.428;-1.994;2023-05-15T07:13:10;101243.06;;;13.59;100.00
66664;BME280;59683;51.428;-1.994;2023-05-15T07:15:36;101239.25;;;13.73;100.00
66664;BME280;59683;51.428;-1.994;2023-05-15T07:18:01;101242.56;;;13.66;100.00
66664;BME280;59683;51.428;-1.994;2023-05-15T07:20:27;101243.41;;;13.87;100.00
66664;BME280;59683;51.428;-1.994;2023-05-15T07:22:52;101249.75;;;14.07;100.00
66664;BME280;59683;51.428;-1.994;2023-05-15T07:25:17;101235.81;;;14.24;100.00
66664;BME280;59683;51.428;-1.994;2023-05-15T07:27:43;101246.94;;;14.29;100.00
66664;BME280;59683;51.428;-1.994;2023-05-15T07:30:08;101256.72;;;15.01;100.00
66664;BME280;59683;51.428;-1.994;2023-05-15T07:32:34;101249.09;;;14.97;100.00
66664;BME280;59683;51.428;-1.994;2023-05-15T07:34:59;101252.56;;;14.36;100.00
66664;BME280;59683;51.428;-1.994;2023-05-15T07:37:25;101258.75;;;14.16;100.00
66664;BME280;59683;51.428;-1.994;2023-05-15T07:39:50;101253.63;;;14.45;100.00
66664;BME280;59683;51.428;-1.994;2023-05-15T07:42:16;101260.28;;;14.81;100.00
66664;BME280;59683;51.428;-1.994;2023-05-15T07:44:41;101258.66;;;14.90;100.00
66664;BME280;59683;51.428;-1.994;2023-05-15T07:47:06;101259.03;;;14.85;100.00
66664;BME280;59683;51.428;-1.994;2023-05-15T07:49:32;101245.13;;;14.81;100.00
66664;BME280;59683;51.428;-1.994;2023-05-15T07:51:57;101247.84;;;14.91;100.00
66664;BME280;59683;51.428;-1.994;2023-05-15T07:54:23;101258.81;;;15.07;100.00
66664;BME280;59683;51.428;-1.994;2023-05-15T07:56:48;101257.56;;;15.02;100.00
66664;BME280;59683;51.428;-1.994;2023-05-15T07:59:13;101243.91;;;14.95;100.00
66664;BME280;59683;51.428;-1.994;2023-05-15T08:01:39;101263.19;;;15.09;100.00
66664;BME280;59683;51.428;-1.994;2023-05-15T08:04:06;101266.34;;;14.93;100.00
66664;BME280;59683;51.428;-1.994;2023-05-15T08:06:32;101259.03;;;14.33;100.00
66664;BME280;59683;51.428;-1.994;2023-05-15T08:08:58;101268.53;;;13.73;100.00
66664;BME280;59683;51.428;-1.994;2023-05-15T08:11:23;101261.34;;;14.06;100.00
66664;BME280;59683;51.428;-1.994;2023-05-15T08:13:49;101264.53;;;14.00;100.00
66664;BME280;59683;51.428;-1.994;2023-05-15T08:16:14;101257.59;;;14.50;100.00
66664;BME280;59683;51.428;-1.994;2023-05-15T08:18:40;101261.88;;;14.42;100.00
66664;BME280;59683;51.428;-1.994;2023-05-15T08:21:05;101265.66;;;14.91;100.00
66664;BME280;59683;51.428;-1.994;2023-05-15T08:23:31;101265.88;;;15.68;100.00
66664;BME280;59683;51.428;-1.994;2023-05-15T08:25:56;101268.53;;;15.78;100.00
66664;BME280;59683;51.428;-1.994;2023-05-15T08:28:21;101260.25;;;15.71;100.00
66664;BME280;59683;51.428;-1.994;2023-05-15T08:30:47;101258.56;;;15.11;100.00
66664;BME280;59683;51.428;-1.994;2023-05-15T08:33:12;101265.56;;;15.02;100.00
66664;BME280;59683;51.428;-1.994;2023-05-15T08:35:38;101265.28;;;15.05;100.00
66664;BME280;59683;51.428;-1.994;2023-05-15T08:38:03;101264.19;;;15.77;100.00
66664;BME280;59683;51.428;-1.994;2023-05-15T08:40:29;101271.63;;;15.93;100.00
66664;BME280;59683;51.428;-1.994;2023-05-15T08:42:58;101277.75;;;16.42;93.94
66664;BME280;59683;51.428;-1.994;2023-05-15T08:45:25;101262.91;;;15.91;100.00
66664;BME280;59683;51.428;-1.994;2023-05-15T08:47:50;101264.47;;;15.74;100.00
66664;BME280;59683;51.428;-1.994;2023-05-15T08:50:16;101269.88;;;15.53;100.00
66664;BME280;59683;51.428;-1.994;2023-05-15T08:52:43;101271.19;;;15.09;100.00
66664;BME280;59683;51.428;-1.994;2023-05-15T08:55:12;101267.31;;;14.82;100.00
66664;BME280;59683;51.428;-1.994;2023-05-15T08:57:39;101265.00;;;15.08;100.00
66664;BME280;59683;51.428;-1.994;2023-05-15T09:00:05;101270.09;;;14.80;100.00
66664;BME280;59683;51.428;-1.994;2023-05-15T09:02:37;101272.66;;;14.92;100.00
66664;BME280;59683;51.428;-1.994;2023-05-15T09:05:04;101279.03;;;15.60;91.92
66664;BME280;59683;51.428;-1.994;2023-05-15T09:07:30;101272.41;;;15.45;81.98
66664;BME280;59683;51.428;-1.994;2023-05-15T09:09:57;101271.94;;;14.38;90.73
66664;BME280;59683;51.428;-1.994;2023-05-15T09:12:24;101274.78;;;14.04;100.00
66664;BME280;59683;51.428;-1.994;2023-05-15T09:14:49;101259.50;;;13.85;100.00
66664;BME280;59683;51.428;-1.994;2023-05-15T09:17:15;101264.06;;;14.37;100.00
66664;BME280;59683;51.428;-1.994;2023-05-15T09:19:41;101265.28;;;15.05;100.00
66664;BME280;59683;51.428;-1.994;2023-05-15T09:22:17;101267.97;;;15.94;100.00
66664;BME280;59683;51.428;-1.994;2023-05-15T09:24:47;101273.28;;;16.23;97.10
66664;BME280;59683;51.428;-1.994;2023-05-15T09:27:13;101276.97;;;16.02;97.46
66664;BME280;59683;51.428;-1.994;2023-05-15T09:29:38;101284.50;;;15.59;100.00
66664;BME280;59683;51.428;-1.994;2023-05-15T09:32:12;101279.75;;;14.72;100.00
66664;BME280;59683;51.428;-1.994;2023-05-15T09:34:39;101281.09;;;14.24;100.00
66664;BME280;59683;51.428;-1.994;2023-05-15T09:37:07;101282.56;;;13.96;100.00
66664;BME280;59683;51.428;-1.994;2023-05-15T09:39:42;101284.59;;;14.46;100.00
66664;BME280;59683;51.428;-1.994;2023-05-15T09:42:10;101285.91;;;14.51;100.00
66664;BME280;59683;51.428;-1.994;2023-05-15T09:44:43;101290.16;;;14.33;100.00
66664;BME280;59683;51.428;-1.994;2023-05-15T09:47:10;101284.28;;;14.18;100.00
66664;BME280;59683;51.428;-1.994;2023-05-15T09:49:36;101286.56;;;14.95;100.00
66664;BME280;59683;51.428;-1.994;2023-05-15T09:52:02;101287.91;;;16.09;100.00
66664;BME280;59683;51.428;-1.994;2023-05-15T09:54:28;101273.63;;;16.67;92.91
66664;BME280;59683;51.428;-1.994;2023-05-15T09:56:55;101279.34;;;17.19;88.42
66664;BME280;59683;51.428;-1.994;2023-05-15T09:59:20;101290.56;;;17.50;79.31
66664;BME280;59683;51.428;-1.994;2023-05-15T10:01:48;101286.72;;;17.80;67.39
66664;BME280;59683;51.428;-1.994;2023-05-15T10:04:15;101276.97;;;17.61;72.27
66664;BME280;59683;51.428;-1.994;2023-05-15T10:06:43;101281.44;;;18.24;70.90
66664;BME280;59683;51.428;-1.994;2023-05-15T10:09:10;101286.72;;;18.94;59.65
66664;BME280;59683;51.428;-1.994;2023-05-15T10:11:38;101264.69;;;19.16;57.03
66664;BME280;59683;51.428;-1.994;2023-05-15T10:14:05;101268.06;;;19.19;56.10
66664;BME280;59683;51.428;-1.994;2023-05-15T10:16:33;101274.97;;;19.29;57.01
66664;BME280;59683;51.428;-1.994;2023-05-15T10:19:02;101274.16;;;18.42;53.83
66664;BME280;59683;51.428;-1.994;2023-05-15T10:21:33;101272.72;;;17.86;55.38
66664;BME280;59683;51.428;-1.994;2023-05-15T10:24:00;101272.41;;;17.71;63.59
66664;BME280;59683;51.428;-1.994;2023-05-15T10:26:43;101266.34;;;18.49;61.71
66664;BME280;59683;51.428;-1.994;2023-05-15T10:29:13;101265.34;;;18.50;61.34
66664;BME280;59683;51.428;-1.994;2023-05-15T10:31:39;101257.38;;;18.84;56.90
66664;BME280;59683;51.428;-1.994;2023-05-15T10:34:06;101264.63;;;18.40;56.35
66664;BME280;59683;51.428;-1.994;2023-05-15T10:36:32;101268.75;;;17.45;61.10
66664;BME280;59683;51.428;-1.994;2023-05-15T10:39:03;101261.19;;;16.38;79.95
66664;BME280;59683;51.428;-1.994;2023-05-15T10:41:31;101264.69;;;16.39;78.52
66664;BME280;59683;51.428;-1.994;2023-05-15T10:43:58;101267.38;;;16.10;77.41
66664;BME280;59683;51.428;-1.994;2023-05-15T10:46:25;101267.44;;;16.66;88.81
66664;BME280;59683;51.428;-1.994;2023-05-15T10:48:51;101271.00;;;18.21;61.96
66664;BME280;59683;51.428;-1.994;2023-05-15T10:51:18;101264.63;;;18.66;56.39
66664;BME280;59683;51.428;-1.994;2023-05-15T10:53:48;101267.91;;;19.87;53.37
66664;BME280;59683;51.428;-1.994;2023-05-15T10:56:16;101238.31;;;20.20;49.66
66664;BME280;59683;51.428;-1.994;2023-05-15T10:58:50;101273.97;;;19.30;51.52
66664;BME280;59683;51.428;-1.994;2023-05-15T11:01:28;101270.25;;;17.57;55.35
66664;BME280;59683;51.428;-1.994;2023-05-15T11:04:05;101261.00;;;16.49;71.10
66664;BME280;59683;51.428;-1.994;2023-05-15T11:06:35;101255.50;;;16.61;71.49
66664;BME280;59683;51.428;-1.994;2023-05-15T11:14:23;101268.69;;;18.26;57.93
66664;BME280;59683;51.428;-1.994;2023-05-15T11:19:35;101284.28;;;17.87;55.96
66664;BME280;59683;51.428;-1.994;2023-05-15T11:24:29;101287.06;;;20.08;54.79
66664;BME280;59683;51.428;-1.994;2023-05-15T11:26:59;101282.16;;;19.71;50.27
66664;BME280;59683;51.428;-1.994;2023-05-15T11:29:24;101287.94;;;19.42;50.27
66664;BME280;59683;51.428;-1.994;2023-05-15T11:31:50;101287.41;;;20.05;47.26
66664;BME280;59683;51.428;-1.994;2023-05-15T11:34:29;101284.84;;;20.53;46.05
66664;BME280;59683;51.428;-1.994;2023-05-15T11:36:57;101282.50;;;19.84;47.77
66664;BME280;59683;51.428;-1.994;2023-05-15T11:39:23;101286.16;;;19.16;50.96
66664;BME280;59683;51.428;-1.994;2023-05-15T11:41:50;101275.13;;;18.15;52.33
66664;BME280;59683;51.428;-1.994;2023-05-15T11:44:22;101282.13;;;17.45;59.13
66664;BME280;59683;51.428;-1.994;2023-05-15T11:46:49;101287.19;;;17.76;61.79
66664;BME280;59683;51.428;-1.994;2023-05-15T11:49:18;101287.53;;;18.86;57.52
66664;BME280;59683;51.428;-1.994;2023-05-15T11:51:47;101288.69;;;18.84;56.69
66664;BME280;59683;51.428;-1.994;2023-05-15T11:54:13;101283.41;;;19.42;48.61
66664;BME280;59683;51.428;-1.994;2023-05-15T11:56:44;101288.94;;;19.41;47.63
66664;BME280;59683;51.428;-1.994;2023-05-15T11:59:13;101284.69;;;20.54;45.33
66664;BME280;59683;51.428;-1.994;2023-05-15T12:01:43;101279.63;;;20.59;43.27
66664;BME280;59683;51.428;-1.994;2023-05-15T12:04:15;101274.91;;;20.70;45.36
66664;BME280;59683;51.428;-1.994;2023-05-15T12:06:42;101280.69;;;21.45;43.86
66664;BME280;59683;51.428;-1.994;2023-05-15T12:09:18;101276.56;;;21.57;43.31
66664;BME280;59683;51.428;-1.994;2023-05-15T12:11:53;101274.81;;;22.34;39.83
66664;BME280;59683;51.428;-1.994;2023-05-15T12:14:45;101277.94;;;20.67;43.67
66664;BME280;59683;51.428;-1.994;2023-05-15T12:17:11;101288.06;;;19.75;44.41
66664;BME280;59683;51.428;-1.994;2023-05-15T12:19:36;101275.34;;;18.66;49.68
66664;BME280;59683;51.428;-1.994;2023-05-15T12:22:05;101275.09;;;19.70;47.48
66664;BME280;59683;51.428;-1.994;2023-05-15T12:24:32;101282.16;;;20.61;44.36
66664;BME280;59683;51.428;-1.994;2023-05-15T12:27:00;101267.91;;;19.87;45.23
66664;BME280;59683;51.428;-1.994;2023-05-15T12:29:27;101284.72;;;20.13;44.65
66664;BME280;59683;51.428;-1.994;2023-05-15T12:31:52;101280.00;;;20.16;49.95
66664;BME280;59683;51.428;-1.994;2023-05-15T12:34:19;101275.03;;;21.24;45.81
66664;BME280;59683;51.428;-1.994;2023-05-15T12:36:45;101277.75;;;21.55;40.05
66664;BME280;59683;51.428;-1.994;2023-05-15T12:39:10;101281.91;;;20.95;41.53
66664;BME280;59683;51.428;-1.994;2023-05-15T12:41:36;101282.00;;;19.73;42.07
66664;BME280;59683;51.428;-1.994;2023-05-15T12:44:02;101277.91;;;18.50;46.16
66664;BME280;59683;51.428;-1.994;2023-05-15T12:46:31;101275.78;;;17.91;49.80
66664;BME280;59683;51.428;-1.994;2023-05-15T12:49:00;101279.00;;;18.39;55.02
66664;BME280;59683;51.428;-1.994;2023-05-15T12:51:26;101274.13;;;18.60;50.26
66664;BME280;59683;51.428;-1.994;2023-05-15T12:53:54;101273.09;;;17.91;51.88
66664;BME280;59683;51.428;-1.994;2023-05-15T12:56:22;101281.63;;;17.41;56.73
66664;BME280;59683;51.428;-1.994;2023-05-15T12:58:48;101274.63;;;17.31;58.05
66664;BME280;59683;51.428;-1.994;2023-05-15T13:01:14;101275.22;;;18.50;56.56
66664;BME280;59683;51.428;-1.994;2023-05-15T13:03:41;101279.84;;;20.09;48.60
66664;BME280;59683;51.428;-1.994;2023-05-15T13:06:08;101270.81;;;21.29;43.48
66664;BME280;59683;51.428;-1.994;2023-05-15T13:08:39;101266.81;;;21.79;41.19
66664;BME280;59683;51.428;-1.994;2023-05-15T13:11:10;101269.81;;;20.91;43.86
66664;BME280;59683;51.428;-1.994;2023-05-15T13:13:47;101293.59;;;20.30;45.18
66664;BME280;59683;51.428;-1.994;2023-05-15T13:16:26;101277.69;;;19.37;46.95
66664;BME280;59683;51.428;-1.994;2023-05-15T13:18:54;101294.66;;;18.26;49.64
66664;BME280;59683;51.428;-1.994;2023-05-15T13:21:21;101290.50;;;18.31;49.60
66664;BME280;59683;51.428;-1.994;2023-05-15T13:23:46;101285.13;;;18.31;51.37
66664;BME280;59683;51.428;-1.994;2023-05-15T13:26:12;101291.41;;;19.26;47.03
66664;BME280;59683;51.428;-1.994;2023-05-15T13:28:37;101291.41;;;19.85;46.86
66664;BME280;59683;51.428;-1.994;2023-05-15T13:31:03;101305.88;;;20.49;45.09
66664;BME280;59683;51.428;-1.994;2023-05-15T13:33:28;101290.94;;;21.10;41.99
66664;BME280;59683;51.428;-1.994;2023-05-15T13:35:55;101283.94;;;21.87;39.52
66664;BME280;59683;51.428;-1.994;2023-05-15T13:38:21;101292.59;;;22.43;38.82
66664;BME280;59683;51.428;-1.994;2023-05-15T13:40:46;101293.41;;;23.11;35.41
66664;BME280;59683;51.428;-1.994;2023-05-15T13:43:12;101288.47;;;23.50;35.32
66664;BME280;59683;51.428;-1.994;2023-05-15T13:45:37;101290.22;;;23.22;35.17
66664;BME280;59683;51.428;-1.994;2023-05-15T13:48:03;101297.97;;;22.95;36.02
66664;BME280;59683;51.428;-1.994;2023-05-15T13:50:28;101286.50;;;23.23;34.32
66664;BME280;59683;51.428;-1.994;2023-05-15T13:52:54;101296.22;;;23.39;33.88
66664;BME280;59683;51.428;-1.994;2023-05-15T13:55:20;101284.47;;;22.95;34.09
66664;BME280;59683;51.428;-1.994;2023-05-15T13:57:45;101291.41;;;21.14;37.81
66664;BME280;59683;51.428;-1.994;2023-05-15T14:00:11;101277.44;;;21.19;38.33
66664;BME280;59683;51.428;-1.994;2023-05-15T14:02:41;101298.09;;;22.12;37.85
66664;BME280;59683;51.428;-1.994;2023-05-15T14:05:08;101290.13;;;22.71;34.69
66664;BME280;59683;51.428;-1.994;2023-05-15T14:07:34;101291.31;;;23.27;33.76
66664;BME280;59683;51.428;-1.994;2023-05-15T14:09:59;101291.44;;;23.05;35.43
66664;BME280;59683;51.428;-1.994;2023-05-15T14:12:24;101287.97;;;23.25;36.43
66664;BME280;59683;51.428;-1.994;2023-05-15T14:14:50;101286.41;;;23.01;35.34
66664;BME280;59683;51.428;-1.994;2023-05-15T14:17:15;101286.13;;;23.26;36.85
66664;BME280;59683;51.428;-1.994;2023-05-15T14:19:42;101288.31;;;23.88;34.58
66664;BME280;59683;51.428;-1.994;2023-05-15T14:22:08;101291.94;;;24.23;36.16
66664;BME280;59683;51.428;-1.994;2023-05-15T14:24:33;101297.09;;;24.68;33.60
66664;BME280;59683;51.428;-1.994;2023-05-15T14:26:59;101287.88;;;25.45;31.51
66664;BME280;59683;51.428;-1.994;2023-05-15T14:29:24;101291.97;;;25.21;32.01
66664;BME280;59683;51.428;-1.994;2023-05-15T14:31:50;101291.44;;;25.52;30.07
66664;BME280;59683;51.428;-1.994;2023-05-15T14:34:16;101274.44;;;25.78;28.74
66664;BME280;59683;51.428;-1.994;2023-05-15T14:36:42;101280.44;;;23.93;30.22
66664;BME280;59683;51.428;-1.994;2023-05-15T14:39:07;101285.38;;;23.32;32.55
66664;BME280;59683;51.428;-1.994;2023-05-15T14:41:32;101276.94;;;23.42;31.14
66664;BME280;59683;51.428;-1.994;2023-05-15T14:43:58;101286.97;;;24.27;30.47
66664;BME280;59683;51.428;-1.994;2023-05-15T14:46:23;101285.94;;;24.07;31.12
66664;BME280;59683;51.428;-1.994;2023-05-15T14:48:49;101272.28;;;22.17;32.35
66664;BME280;59683;51.428;-1.994;2023-05-15T14:51:15;101289.00;;;21.58;34.94
66664;BME280;59683;51.428;-1.994;2023-05-15T14:53:41;101276.44;;;21.12;35.00
66664;BME280;59683;51.428;-1.994;2023-05-15T14:56:06;101287.41;;;20.13;37.28
66664;BME280;59683;51.428;-1.994;2023-05-15T14:58:32;101280.78;;;19.16;39.21
66664;BME280;59683;51.428;-1.994;2023-05-15T15:00:57;101288.25;;;19.39;39.40
66664;BME280;59683;51.428;-1.994;2023-05-15T15:03:23;101287.72;;;20.10;38.67
66664;BME280;59683;51.428;-1.994;2023-05-15T15:05:49;101295.13;;;21.05;37.14
66664;BME280;59683;51.428;-1.994;2023-05-15T15:08:16;101292.44;;;21.52;38.07
66664;BME280;59683;51.428;-1.994;2023-05-15T15:10:42;101293.81;;;22.55;36.14
66664;BME280;59683;51.428;-1.994;2023-05-15T15:13:08;101286.75;;;23.28;31.51
66664;BME280;59683;51.428;-1.994;2023-05-15T15:15:36;101292.91;;;23.37;31.28
66664;BME280;59683;51.428;-1.994;2023-05-15T15:18:02;101298.78;;;23.62;31.14
66664;BME280;59683;51.428;-1.994;2023-05-15T15:20:28;101303.06;;;24.63;29.64
66664;BME280;59683;51.428;-1.994;2023-05-15T15:22:54;101299.16;;;23.08;30.64
66664;BME280;59683;51.428;-1.994;2023-05-15T15:25:20;101302.75;;;20.93;35.03
66664;BME280;59683;51.428;-1.994;2023-05-15T15:27:46;101308.88;;;19.30;37.58
66664;BME280;59683;51.428;-1.994;2023-05-15T15:30:12;101296.00;;;19.00;40.12
66664;BME280;59683;51.428;-1.994;2023-05-15T15:32:38;101296.19;;;19.49;40.47
66664;BME280;59683;51.428;-1.994;2023-05-15T15:35:04;101306.47;;;20.92;38.58
66664;BME280;59683;51.428;-1.994;2023-05-15T15:37:31;101307.59;;;21.99;36.09
66664;BME280;59683;51.428;-1.994;2023-05-15T15:39:57;101307.34;;;22.70;34.38
66664;BME280;59683;51.428;-1.994;2023-05-15T15:42:23;101311.09;;;23.13;32.77
66664;BME280;59683;51.428;-1.994;2023-05-15T15:44:49;101312.88;;;22.91;31.80
66664;BME280;59683;51.428;-1.994;2023-05-15T15:47:14;101311.00;;;23.21;31.72
66664;BME280;59683;51.428;-1.994;2023-05-15T15:49:39;101314.88;;;23.85;29.76
66664;BME280;59683;51.428;-1.994;2023-05-15T15:52:07;101308.44;;;24.07;29.64
66664;BME280;59683;51.428;-1.994;2023-05-15T15:54:33;101299.41;;;23.79;30.71
66664;BME280;59683;51.428;-1.994;2023-05-15T15:56:58;101307.72;;;23.98;31.07
66664;BME280;59683;51.428;-1.994;2023-05-15T15:59:24;101306.94;;;24.26;28.59
66664;BME280;59683;51.428;-1.994;2023-05-15T16:01:49;101298.88;;;22.88;29.71
66664;BME280;59683;51.428;-1.994;2023-05-15T16:04:15;101300.41;;;22.52;31.40
66664;BME280;59683;51.428;-1.994;2023-05-15T16:06:40;101305.66;;;23.28;30.78
66664;BME280;59683;51.428;-1.994;2023-05-15T16:09:06;101309.31;;;23.71;29.59
66664;BME280;59683;51.428;-1.994;2023-05-15T16:11:31;101315.59;;;24.15;28.80
66664;BME280;59683;51.428;-1.994;2023-05-15T16:13:56;101312.22;;;23.70;28.64
66664;BME280;59683;51.428;-1.994;2023-05-15T16:16:22;101318.09;;;23.73;30.16
66664;BME280;59683;51.428;-1.994;2023-05-15T16:18:47;101314.59;;;23.80;29.82
66664;BME280;59683;51.428;-1.994;2023-05-15T16:21:12;101313.19;;;24.05;30.23
66664;BME280;59683;51.428;-1.994;2023-05-15T16:23:38;101309.72;;;23.90;29.33
66664;BME280;59683;51.428;-1.994;2023-05-15T16:26:06;101318.78;;;24.25;30.22
66664;BME280;59683;51.428;-1.994;2023-05-15T16:28:33;101320.56;;;24.61;28.80
66664;BME280;59683;51.428;-1.994;2023-05-15T16:30:59;101318.94;;;25.42;27.65
66664;BME280;59683;51.428;-1.994;2023-05-15T16:33:24;101319.97;;;24.65;29.04
66664;BME280;59683;51.428;-1.994;2023-05-15T16:35:50;101324.81;;;24.77;27.30
66664;BME280;59683;51.428;-1.994;2023-05-15T16:38:18;101322.66;;;24.16;27.33
66664;BME280;59683;51.428;-1.994;2023-05-15T16:40:44;101322.44;;;24.17;29.53
66664;BME280;59683;51.428;-1.994;2023-05-15T16:43:10;101323.88;;;24.35;29.44
66664;BME280;59683;51.428;-1.994;2023-05-15T16:45:36;101318.34;;;25.47;28.34
66664;BME280;59683;51.428;-1.994;2023-05-15T16:48:01;101331.91;;;25.12;28.44
66664;BME280;59683;51.428;-1.994;2023-05-15T16:50:29;101331.06;;;24.77;28.85
66664;BME280;59683;51.428;-1.994;2023-05-15T16:52:55;101320.88;;;24.30;29.42
66664;BME280;59683;51.428;-1.994;2023-05-15T16:55:20;101332.56;;;24.30;30.28
66664;BME280;59683;51.428;-1.994;2023-05-15T16:57:46;101326.91;;;24.04;30.02
66664;BME280;59683;51.428;-1.994;2023-05-15T17:00:12;101334.94;;;23.24;29.98
66664;BME280;59683;51.428;-1.994;2023-05-15T17:02:39;101332.66;;;22.31;30.10
66664;BME280;59683;51.428;-1.994;2023-05-15T17:05:06;101324.53;;;21.85;32.49
66664;BME280;59683;51.428;-1.994;2023-05-15T17:07:33;101337.13;;;21.62;32.81
66664;BME280;59683;51.428;-1.994;2023-05-15T17:09:59;101338.06;;;22.00;30.93
66664;BME280;59683;51.428;-1.994;2023-05-15T17:12:24;101330.94;;;22.07;30.90
66664;BME280;59683;51.428;-1.994;2023-05-15T17:14:50;101326.63;;;21.44;33.22
66664;BME280;59683;51.428;-1.994;2023-05-15T17:17:15;101328.22;;;20.66;34.08
66664;BME280;59683;51.428;-1.994;2023-05-15T17:19:41;101335.72;;;19.89;36.10
66664;BME280;59683;51.428;-1.994;2023-05-15T17:22:06;101328.59;;;18.87;37.62
66664;BME280;59683;51.428;-1.994;2023-05-15T17:24:31;101335.53;;;17.92;39.95
66664;BME280;59683;51.428;-1.994;2023-05-15T17:26:57;101335.19;;;16.94;40.46
66664;BME280;59683;51.428;-1.994;2023-05-15T17:29:23;101333.59;;;16.16;41.93
66664;BME280;59683;51.428;-1.994;2023-05-15T17:31:49;101333.72;;;15.66;43.82
66664;BME280;59683;51.428;-1.994;2023-05-15T17:34:14;101339.50;;;15.40;46.97
66664;BME280;59683;51.428;-1.994;2023-05-15T17:36:39;101345.75;;;15.20;50.79
66664;BME280;59683;51.428;-1.994;2023-05-15T17:39:08;101344.81;;;15.00;51.35
66664;BME280;59683;51.428;-1.994;2023-05-15T17:41:34;101352.84;;;14.79;51.71
66664;BME280;59683;51.428;-1.994;2023-05-15T17:43:59;101347.41;;;14.60;52.04
66664;BME280;59683;51.428;-1.994;2023-05-15T17:46:24;101355.53;;;14.47;55.90
66664;BME280;59683;51.428;-1.994;2023-05-15T17:48:50;101354.34;;;14.40;58.16
66664;BME280;59683;51.428;-1.994;2023-05-15T17:51:15;101348.59;;;14.34;59.68
66664;BME280;59683;51.428;-1.994;2023-05-15T17:53:41;101354.41;;;14.28;56.93
66664;BME280;59683;51.428;-1.994;2023-05-15T17:56:06;101354.22;;;14.20;54.06
66664;BME280;59683;51.428;-1.994;2023-05-15T17:58:32;101352.91;;;14.15;56.78
66664;BME280;59683;51.428;-1.994;2023-05-15T18:00:58;101356.91;;;14.09;54.61
66664;BME280;59683;51.428;-1.994;2023-05-15T18:03:23;101354.19;;;13.99;55.12
66664;BME280;59683;51.428;-1.994;2023-05-15T18:05:49;101352.25;;;13.90;55.90
66664;BME280;59683;51.428;-1.994;2023-05-15T18:08:15;101347.72;;;13.81;63.52
66664;BME280;59683;51.428;-1.994;2023-05-15T18:10:41;101359.81;;;13.74;57.61